sensor_id;sensor_type;location;lat;lon;timestamp;temperature;humidity
39401;DHT22;54391;50.000;7.360;2023-07-20T00:09:14;15.90;1.00
39401;DHT22;54391;50.000;7.360;2023-07-20T00:11:49;15.90;1.00
39401;DHT22;54391;50.000;7.360;2023-07-20T00:16:45;15.80;1.00
39401;DHT22;54391;50.000;7.360;2023-07-20T00:19:15;15.80;1.00
39401;DHT22;54391;50.000;7.360;2023-07-20T00:21:43;15.80;1.00
39401;DHT22;54391;50.000;7.360;2023-07-20T00:24:10;15.80;1.00
39401;DHT22;54391;50.000;7.360;2023-07-20T00:26:37;15.70;1.00
39401;DHT22;54391;50.000;7.360;2023-07-20T00:31:33;15.40;1.00
39401;DHT22;54391;50.000;7.360;2023-07-20T00:36:29;15.30;1.00
39401;DHT22;54391;50.000;7.360;2023-07-20T00:38:56;15.00;1.00
39401;DHT22;54391;50.000;7.360;2023-07-20T00:41:23;15.20;1.00
39401;DHT22;54391;50.000;7.360;2023-07-20T00:43:55;15.20;1.00
39401;DHT22;54391;50.000;7.360;2023-07-20T00:46:24;15.10;1.00
39401;DHT22;54391;50.000;7.360;2023-07-20T00:48:53;15.00;1.00
39401;DHT22;54391;50.000;7.360;2023-07-20T00:51:21;14.90;1.00
39401;DHT22;54391;50.000;7.360;2023-07-20T00:58:44;14.70;2.80
39401;DHT22;54391;50.000;7.360;2023-07-20T01:01:11;14.70;3.50
39401;DHT22;54391;50.000;7.360;2023-07-20T01:06:15;14.60;4.50
39401;DHT22;54391;50.000;7.360;2023-07-20T01:08:50;14.60;4.70
39401;DHT22;54391;50.000;7.360;2023-07-20T01:11:31;14.60;4.70
39401;DHT22;54391;50.000;7.360;2023-07-20T01:13:59;14.60;4.80
39401;DHT22;54391;50.000;7.360;2023-07-20T01:16:27;14.60;5.30
39401;DHT22;54391;50.000;7.360;2023-07-20T01:21:29;14.60;5.50
39401;DHT22;54391;50.000;7.360;2023-07-20T01:24:27;14.60;5.80
39401;DHT22;54391;50.000;7.360;2023-07-20T01:30:25;14.60;6.20
39401;DHT22;54391;50.000;7.360;2023-07-20T01:32:58;14.50;6.70
39401;DHT22;54391;50.000;7.360;2023-07-20T01:35:29;14.40;7.30
39401;DHT22;54391;50.000;7.360;2023-07-20T01:37:56;14.40;7.50
39401;DHT22;54391;50.000;7.360;2023-07-20T01:40:25;14.40;8.00
39401;DHT22;54391;50.000;7.360;2023-07-20T01:45:20;14.40;8.30
39401;DHT22;54391;50.000;7.360;2023-07-20T01:47:47;14.40;8.60
39401;DHT22;54391;50.000;7.360;2023-07-20T01:55:10;14.30;9.20
39401;DHT22;54391;50.000;7.360;2023-07-20T01:57:37;14.30;9.30
39401;DHT22;54391;50.000;7.360;2023-07-20T02:00:06;14.20;9.60
39401;DHT22;54391;50.000;7.360;2023-07-20T02:02:41;14.20;10.20
39401;DHT22;54391;50.000;7.360;2023-07-20T02:05:09;14.20;10.80
39401;DHT22;54391;50.000;7.360;2023-07-20T02:10:06;14.10;11.30
39401;DHT22;54391;50.000;7.360;2023-07-20T02:12:34;14.10;11.90
39401;DHT22;54391;50.000;7.360;2023-07-20T02:15:02;14.00;12.10
39401;DHT22;54391;50.000;7.360;2023-07-20T02:17:29;14.00;12.30
39401;DHT22;54391;50.000;7.360;2023-07-20T02:19:57;14.00;12.80
39401;DHT22;54391;50.000;7.360;2023-07-20T02:39:38;13.70;17.70
39401;DHT22;54391;50.000;7.360;2023-07-20T02:42:07;13.60;17.80
39401;DHT22;54391;50.000;7.360;2023-07-20T02:44:34;13.60;18.10
39401;DHT22;54391;50.000;7.360;2023-07-20T02:47:01;13.60;18.20
39401;DHT22;54391;50.000;7.360;2023-07-20T02:49:28;13.60;19.00
39401;DHT22;54391;50.000;7.360;2023-07-20T02:54:23;13.60;19.00
39401;DHT22;54391;50.000;7.360;2023-07-20T03:01:46;13.60;19.50
39401;DHT22;54391;50.000;7.360;2023-07-20T03:04:14;13.60;19.50
39401;DHT22;54391;50.000;7.360;2023-07-20T03:06:42;13.60;19.40
39401;DHT22;54391;50.000;7.360;2023-07-20T03:09:09;13.50;19.40
39401;DHT22;54391;50.000;7.360;2023-07-20T03:11:36;13.50;19.70
39401;DHT22;54391;50.000;7.360;2023-07-20T03:19:00;13.50;19.70
39401;DHT22;54391;50.000;7.360;2023-07-20T03:21:29;13.50;20.00
39401;DHT22;54391;50.000;7.360;2023-07-20T03:26:26;13.40;20.20
39401;DHT22;54391;50.000;7.360;2023-07-20T03:28:53;13.40;20.30
39401;DHT22;54391;50.000;7.360;2023-07-20T03:31:21;13.20;21.80
39401;DHT22;54391;50.000;7.360;2023-07-20T03:33:49;13.30;22.10
39401;DHT22;54391;50.000;7.360;2023-07-20T03:38:44;13.30;23.20
39401;DHT22;54391;50.000;7.360;2023-07-20T03:41:11;13.30;24.50
39401;DHT22;54391;50.000;7.360;2023-07-20T03:43:40;13.30;24.20
39401;DHT22;54391;50.000;7.360;2023-07-20T03:51:04;13.30;25.50
39401;DHT22;54391;50.000;7.360;2023-07-20T03:53:31;13.30;25.10
39401;DHT22;54391;50.000;7.360;2023-07-20T03:55:58;13.30;25.00
39401;DHT22;54391;50.000;7.360;2023-07-20T03:58:24;13.30;25.30
39401;DHT22;54391;50.000;7.360;2023-07-20T04:00:52;13.30;24.80
39401;DHT22;54391;50.000;7.360;2023-07-20T04:03:19;13.20;27.00
39401;DHT22;54391;50.000;7.360;2023-07-20T04:05:48;13.30;26.80
39401;DHT22;54391;50.000;7.360;2023-07-20T04:10:45;13.30;26.80
39401;DHT22;54391;50.000;7.360;2023-07-20T04:13:12;13.30;27.20
39401;DHT22;54391;50.000;7.360;2023-07-20T04:15:39;14.90;28.80
39401;DHT22;54391;50.000;7.360;2023-07-20T04:20:34;13.00;29.40
39401;DHT22;54391;50.000;7.360;2023-07-20T04:23:01;12.90;30.60
39401;DHT22;54391;50.000;7.360;2023-07-20T04:27:59;12.90;32.70
39401;DHT22;54391;50.000;7.360;2023-07-20T04:30:26;10.90;32.10
39401;DHT22;54391;50.000;7.360;2023-07-20T04:32:53;12.90;33.70
39401;DHT22;54391;50.000;7.360;2023-07-20T04:35:45;12.90;34.00
39401;DHT22;54391;50.000;7.360;2023-07-20T04:38:15;13.00;34.30
39401;DHT22;54391;50.000;7.360;2023-07-20T04:45:40;13.20;34.00
39401;DHT22;54391;50.000;7.360;2023-07-20T04:48:10;13.40;31.50
39401;DHT22;54391;50.000;7.360;2023-07-20T04:50:40;13.50;30.40
39401;DHT22;54391;50.000;7.360;2023-07-20T04:53:08;13.70;28.80
39401;DHT22;54391;50.000;7.360;2023-07-20T04:58:05;13.70;27.40
39401;DHT22;54391;50.000;7.360;2023-07-20T05:00:37;13.80;27.50
39401;DHT22;54391;50.000;7.360;2023-07-20T05:10:31;14.00;25.90
39401;DHT22;54391;50.000;7.360;2023-07-20T05:25:22;14.10;26.10
39401;DHT22;54391;50.000;7.360;2023-07-20T05:27:49;14.20;24.40
39401;DHT22;54391;50.000;7.360;2023-07-20T05:35:17;14.70;20.70
39401;DHT22;54391;50.000;7.360;2023-07-20T05:40:12;14.80;21.50
39401;DHT22;54391;50.000;7.360;2023-07-20T06:14:42;17.40;1.00
39401;DHT22;54391;50.000;7.360;2023-07-20T06:22:05;17.90;1.00
39401;DHT22;54391;50.000;7.360;2023-07-20T06:29:28;16.40;4.90
39401;DHT22;54391;50.000;7.360;2023-07-20T06:31:56;16.20;7.50
39401;DHT22;54391;50.000;7.360;2023-07-20T06:44:19;17.10;5.20
39401;DHT22;54391;50.000;7.360;2023-07-20T06:51:51;18.10;1.00
39401;DHT22;54391;50.000;7.360;2023-07-20T06:54:18;18.40;1.00
39401;DHT22;54391;50.000;7.360;2023-07-20T06:56:45;18.20;1.00
39401;DHT22;54391;50.000;7.360;2023-07-20T06:59:15;18.70;1.00
39401;DHT22;54391;50.000;7.360;2023-07-20T07:01:42;18.60;1.00
39401;DHT22;54391;50.000;7.360;2023-07-20T07:04:09;18.40;1.00
39401;DHT22;54391;50.000;7.360;2023-07-20T07:06:36;18.00;1.00
39401;DHT22;54391;50.000;7.360;2023-07-20T07:09:04;18.00;1.00
39401;DHT22;54391;50.000;7.360;2023-07-20T07:11:31;18.50;1.00
39401;DHT22;54391;50.000;7.360;2023-07-20T07:13:58;19.10;1.00
39401;DHT22;54391;50.000;7.360;2023-07-20T07:21:22;19.80;1.00
39401;DHT22;54391;50.000;7.360;2023-07-20T07:28:47;20.00;1.00
39401;DHT22;54391;50.000;7.360;2023-07-20T07:31:14;19.60;1.00
39401;DHT22;54391;50.000;7.360;2023-07-20T07:33:43;19.70;1.00
39401;DHT22;54391;50.000;7.360;2023-07-20T07:36:10;20.30;1.00
39401;DHT22;54391;50.000;7.360;2023-07-20T07:41:04;20.80;1.00
39401;DHT22;54391;50.000;7.360;2023-07-20T07:43:32;20.50;1.00
39401;DHT22;54391;50.000;7.360;2023-07-20T07:45:59;20.70;1.00
39401;DHT22;54391;50.000;7.360;2023-07-20T07:48:26;19.80;1.00
39401;DHT22;54391;50.000;7.360;2023-07-20T07:50:55;19.50;1.00
39401;DHT22;54391;50.000;7.360;2023-07-20T07:53:22;19.00;1.00
39401;DHT22;54391;50.000;7.360;2023-07-20T07:55:51;18.80;1.00
39401;DHT22;54391;50.000;7.360;2023-07-20T08:00:45;18.20;1.00
39401;DHT22;54391;50.000;7.360;2023-07-20T08:03:13;18.20;1.00
39401;DHT22;54391;50.000;7.360;2023-07-20T08:13:04;19.60;1.00
39401;DHT22;54391;50.000;7.360;2023-07-20T08:15:31;19.60;1.00
39401;DHT22;54391;50.000;7.360;2023-07-20T08:20:25;18.50;1.00
39401;DHT22;54391;50.000;7.360;2023-07-20T08:22:53;18.50;1.00
39401;DHT22;54391;50.000;7.360;2023-07-20T08:27:49;18.10;1.00
39401;DHT22;54391;50.000;7.360;2023-07-20T08:30:16;18.20;1.00
39401;DHT22;54391;50.000;7.360;2023-07-20T08:32:43;18.20;1.00
39401;DHT22;54391;50.000;7.360;2023-07-20T08:35:10;18.20;1.00
39401;DHT22;54391;50.000;7.360;2023-07-20T08:37:37;18.40;1.00
39401;DHT22;54391;50.000;7.360;2023-07-20T08:40:06;18.50;1.00
39401;DHT22;54391;50.000;7.360;2023-07-20T08:42:36;18.60;1.00
39401;DHT22;54391;50.000;7.360;2023-07-20T08:45:06;18.60;1.00
39401;DHT22;54391;50.000;7.360;2023-07-20T08:50:03;19.00;1.00
39401;DHT22;54391;50.000;7.360;2023-07-20T08:52:33;18.90;1.00
39401;DHT22;54391;50.000;7.360;2023-07-20T08:55:01;18.70;1.00
39401;DHT22;54391;50.000;7.360;2023-07-20T08:57:32;18.70;1.00
39401;DHT22;54391;50.000;7.360;2023-07-20T09:00:02;19.50;1.00
39401;DHT22;54391;50.000;7.360;2023-07-20T09:02:38;19.50;1.00
39401;DHT22;54391;50.000;7.360;2023-07-20T09:05:07;19.90;1.00
39401;DHT22;54391;50.000;7.360;2023-07-20T09:07:36;20.70;1.00
39401;DHT22;54391;50.000;7.360;2023-07-20T09:10:03;21.00;1.00
39401;DHT22;54391;50.000;7.360;2023-07-20T09:12:32;20.50;1.00
39401;DHT22;54391;50.000;7.360;2023-07-20T09:15:03;20.40;1.00
39401;DHT22;54391;50.000;7.360;2023-07-20T09:17:30;21.20;1.00
39401;DHT22;54391;50.000;7.360;2023-07-20T09:19:58;21.90;1.00
39401;DHT22;54391;50.000;7.360;2023-07-20T09:22:29;21.70;1.00
39401;DHT22;54391;50.000;7.360;2023-07-20T09:24:58;21.50;1.00
39401;DHT22;54391;50.000;7.360;2023-07-20T09:27:34;21.30;1.00
39401;DHT22;54391;50.000;7.360;2023-07-20T09:30:04;21.80;1.00
39401;DHT22;54391;50.000;7.360;2023-07-20T09:36:20;21.80;1.00
39401;DHT22;54391;50.000;7.360;2023-07-20T09:38:47;21.70;1.00
39401;DHT22;54391;50.000;7.360;2023-07-20T09:41:15;21.00;1.00
39401;DHT22;54391;50.000;7.360;2023-07-20T09:43:43;21.00;1.00
39401;DHT22;54391;50.000;7.360;2023-07-20T09:46:11;21.40;1.00
39401;DHT22;54391;50.000;7.360;2023-07-20T09:48:39;21.70;1.00
39401;DHT22;54391;50.000;7.360;2023-07-20T09:51:07;22.20;1.00
39401;DHT22;54391;50.000;7.360;2023-07-20T09:53:34;23.10;1.00
39401;DHT22;54391;50.000;7.360;2023-07-20T09:56:02;23.40;1.00
39401;DHT22;54391;50.000;7.360;2023-07-20T09:58:32;23.40;1.00
39401;DHT22;54391;50.000;7.360;2023-07-20T10:01:01;23.60;1.00
39401;DHT22;54391;50.000;7.360;2023-07-20T10:03:32;23.40;1.00
39401;DHT22;54391;50.000;7.360;2023-07-20T10:06:05;23.50;1.00
39401;DHT22;54391;50.000;7.360;2023-07-20T10:08:33;23.60;1.00
39401;DHT22;54391;50.000;7.360;2023-07-20T10:11:02;23.20;1.00
39401;DHT22;54391;50.000;7.360;2023-07-20T10:16:02;24.10;1.00
39401;DHT22;54391;50.000;7.360;2023-07-20T10:18:41;24.20;1.00
39401;DHT22;54391;50.000;7.360;2023-07-20T10:21:17;24.40;1.00
39401;DHT22;54391;50.000;7.360;2023-07-20T10:23:46;24.40;1.00
39401;DHT22;54391;50.000;7.360;2023-07-20T10:26:14;24.00;1.00
39401;DHT22;54391;50.000;7.360;2023-07-20T10:28:41;23.80;1.00
39401;DHT22;54391;50.000;7.360;2023-07-20T10:31:09;23.60;1.00
39401;DHT22;54391;50.000;7.360;2023-07-20T10:36:06;23.70;1.00
39401;DHT22;54391;50.000;7.360;2023-07-20T10:38:40;23.70;1.00
39401;DHT22;54391;50.000;7.360;2023-07-20T10:41:18;23.90;1.00
39401;DHT22;54391;50.000;7.360;2023-07-20T10:43:47;23.20;1.00
39401;DHT22;54391;50.000;7.360;2023-07-20T10:46:15;23.30;1.00
39401;DHT22;54391;50.000;7.360;2023-07-20T10:49:02;23.70;1.00
39401;DHT22;54391;50.000;7.360;2023-07-20T10:51:30;23.70;1.00
39401;DHT22;54391;50.000;7.360;2023-07-20T10:54:08;23.80;1.00
39401;DHT22;54391;50.000;7.360;2023-07-20T10:56:35;24.30;1.00
39401;DHT22;54391;50.000;7.360;2023-07-20T10:59:17;24.20;1.00
39401;DHT22;54391;50.000;7.360;2023-07-20T11:01:46;23.70;1.00
39401;DHT22;54391;50.000;7.360;2023-07-20T11:04:17;24.10;1.00
39401;DHT22;54391;50.000;7.360;2023-07-20T11:06:45;24.60;1.00
39401;DHT22;54391;50.000;7.360;2023-07-20T11:09:14;25.10;1.00
39401;DHT22;54391;50.000;7.360;2023-07-20T11:11:42;25.00;1.00
39401;DHT22;54391;50.000;7.360;2023-07-20T11:14:11;24.70;1.00
39401;DHT22;54391;50.000;7.360;2023-07-20T11:16:48;25.00;1.00
39401;DHT22;54391;50.000;7.360;2023-07-20T11:19:19;25.00;1.00
39401;DHT22;54391;50.000;7.360;2023-07-20T11:21:49;24.50;1.00
39401;DHT22;54391;50.000;7.360;2023-07-20T11:24:17;24.70;1.00
39401;DHT22;54391;50.000;7.360;2023-07-20T11:26:47;25.30;1.00
39401;DHT22;54391;50.000;7.360;2023-07-20T11:29:16;25.40;1.00
39401;DHT22;54391;50.000;7.360;2023-07-20T11:31:45;25.30;1.00
39401;DHT22;54391;50.000;7.360;2023-07-20T11:34:13;25.60;1.00
39401;DHT22;54391;50.000;7.360;2023-07-20T11:36:43;25.50;1.00
39401;DHT22;54391;50.000;7.360;2023-07-20T11:39:12;25.50;1.00
39401;DHT22;54391;50.000;7.360;2023-07-20T11:41:46;25.20;1.00
39401;DHT22;54391;50.000;7.360;2023-07-20T11:44:13;25.00;1.00
39401;DHT22;54391;50.000;7.360;2023-07-20T11:46:41;24.80;1.00
39401;DHT22;54391;50.000;7.360;2023-07-20T11:49:10;24.80;1.00
39401;DHT22;54391;50.000;7.360;2023-07-20T11:51:38;24.70;1.00
39401;DHT22;54391;50.000;7.360;2023-07-20T11:54:08;24.70;1.00
39401;DHT22;54391;50.000;7.360;2023-07-20T11:56:35;25.10;1.00
39401;DHT22;54391;50.000;7.360;2023-07-20T11:59:03;25.00;1.00
39401;DHT22;54391;50.000;7.360;2023-07-20T12:01:30;25.10;1.00
39401;DHT22;54391;50.000;7.360;2023-07-20T12:03:59;24.60;1.00
39401;DHT22;54391;50.000;7.360;2023-07-20T12:06:28;24.90;1.00
39401;DHT22;54391;50.000;7.360;2023-07-20T12:08:56;24.90;1.00
39401;DHT22;54391;50.000;7.360;2023-07-20T12:11:34;25.00;1.00
39401;DHT22;54391;50.000;7.360;2023-07-20T12:14:03;24.40;1.00
39401;DHT22;54391;50.000;7.360;2023-07-20T12:16:30;24.20;1.00
39401;DHT22;54391;50.000;7.360;2023-07-20T12:19:02;21.80;1.00
39401;DHT22;54391;50.000;7.360;2023-07-20T12:21:29;24.20;1.00
39401;DHT22;54391;50.000;7.360;2023-07-20T12:23:57;24.10;1.00
39401;DHT22;54391;50.000;7.360;2023-07-20T12:26:25;24.40;1.00
39401;DHT22;54391;50.000;7.360;2023-07-20T12:31:22;24.70;1.00
39401;DHT22;54391;50.000;7.360;2023-07-20T12:33:50;24.70;1.00
39401;DHT22;54391;50.000;7.360;2023-07-20T12:36:17;24.90;1.00
39401;DHT22;54391;50.000;7.360;2023-07-20T12:38:44;24.40;1.00
39401;DHT22;54391;50.000;7.360;2023-07-20T12:41:12;24.60;1.00
39401;DHT22;54391;50.000;7.360;2023-07-20T12:43:40;24.60;1.00
39401;DHT22;54391;50.000;7.360;2023-07-20T12:46:09;24.20;1.00
39401;DHT22;54391;50.000;7.360;2023-07-20T12:51:06;24.00;1.00
39401;DHT22;54391;50.000;7.360;2023-07-20T12:56:01;24.20;1.00
39401;DHT22;54391;50.000;7.360;2023-07-20T13:00:56;24.60;1.00
39401;DHT22;54391;50.000;7.360;2023-07-20T13:05:51;24.70;1.00
39401;DHT22;54391;50.000;7.360;2023-07-20T13:08:19;24.70;1.00
39401;DHT22;54391;50.000;7.360;2023-07-20T13:10:46;24.80;1.00
39401;DHT22;54391;50.000;7.360;2023-07-20T13:15:43;24.00;1.00
39401;DHT22;54391;50.000;7.360;2023-07-20T13:18:12;24.10;1.00
39401;DHT22;54391;50.000;7.360;2023-07-20T13:20:40;24.10;1.00
39401;DHT22;54391;50.000;7.360;2023-07-20T13:25:35;24.10;1.00
39401;DHT22;54391;50.000;7.360;2023-07-20T13:28:02;23.90;1.00
39401;DHT22;54391;50.000;7.360;2023-07-20T13:40:20;22.70;1.00
39401;DHT22;54391;50.000;7.360;2023-07-20T13:52:38;24.10;1.00
39401;DHT22;54391;50.000;7.360;2023-07-20T13:55:08;23.90;1.00
39401;DHT22;54391;50.000;7.360;2023-07-20T13:57:35;23.60;1.00
39401;DHT22;54391;50.000;7.360;2023-07-20T14:00:03;23.40;1.00
39401;DHT22;54391;50.000;7.360;2023-07-20T14:02:37;23.00;1.00
39401;DHT22;54391;50.000;7.360;2023-07-20T14:05:05;22.80;1.00
39401;DHT22;54391;50.000;7.360;2023-07-20T14:07:32;22.70;1.00
39401;DHT22;54391;50.000;7.360;2023-07-20T14:12:28;22.50;1.00
39401;DHT22;54391;50.000;7.360;2023-07-20T14:14:55;22.50;1.00
39401;DHT22;54391;50.000;7.360;2023-07-20T14:17:23;22.50;1.00
39401;DHT22;54391;50.000;7.360;2023-07-20T14:19:50;22.70;1.00
39401;DHT22;54391;50.000;7.360;2023-07-20T14:27:12;23.20;1.00
39401;DHT22;54391;50.000;7.360;2023-07-20T14:29:41;23.40;1.00
39401;DHT22;54391;50.000;7.360;2023-07-20T14:32:08;23.50;1.00
39401;DHT22;54391;50.000;7.360;2023-07-20T14:37:03;23.50;1.00
39401;DHT22;54391;50.000;7.360;2023-07-20T14:44:25;23.50;1.00
39401;DHT22;54391;50.000;7.360;2023-07-20T14:56:49;23.40;1.00
39401;DHT22;54391;50.000;7.360;2023-07-20T15:01:46;22.90;1.00
39401;DHT22;54391;50.000;7.360;2023-07-20T15:04:14;22.70;1.00
39401;DHT22;54391;50.000;7.360;2023-07-20T15:09:09;22.80;1.00
39401;DHT22;54391;50.000;7.360;2023-07-20T15:11:36;22.80;1.00
39401;DHT22;54391;50.000;7.360;2023-07-20T15:14:03;22.90;1.00
39401;DHT22;54391;50.000;7.360;2023-07-20T15:16:30;22.90;1.00
39401;DHT22;54391;50.000;7.360;2023-07-20T15:21:27;23.10;1.00
39401;DHT22;54391;50.000;7.360;2023-07-20T15:23:56;23.00;1.00
39401;DHT22;54391;50.000;7.360;2023-07-20T15:28:51;22.80;1.00
39401;DHT22;54391;50.000;7.360;2023-07-20T15:38:41;22.70;1.00
39401;DHT22;54391;50.000;7.360;2023-07-20T15:41:09;22.90;1.00
39401;DHT22;54391;50.000;7.360;2023-07-20T15:43:36;23.00;1.00
39401;DHT22;54391;50.000;7.360;2023-07-20T15:49:11;23.30;1.00
39401;DHT22;54391;50.000;7.360;2023-07-20T15:56:36;23.30;1.00
39401;DHT22;54391;50.000;7.360;2023-07-20T16:01:32;23.10;1.00
39401;DHT22;54391;50.000;7.360;2023-07-20T16:04:01;23.30;1.00
39401;DHT22;54391;50.000;7.360;2023-07-20T16:13:52;23.40;1.00
39401;DHT22;54391;50.000;7.360;2023-07-20T16:16:19;23.30;1.00
39401;DHT22;54391;50.000;7.360;2023-07-20T16:18:49;23.30;1.00
39401;DHT22;54391;50.000;7.360;2023-07-20T16:23:44;23.30;1.00
39401;DHT22;54391;50.000;7.360;2023-07-20T16:28:40;23.30;1.00
39401;DHT22;54391;50.000;7.360;2023-07-20T16:31:09;23.40;1.00
39401;DHT22;54391;50.000;7.360;2023-07-20T16:33:36;23.30;1.00
39401;DHT22;54391;50.000;7.360;2023-07-20T16:36:08;23.20;1.00
39401;DHT22;54391;50.000;7.360;2023-07-20T16:41:05;23.20;1.00
39401;DHT22;54391;50.000;7.360;2023-07-20T16:46:03;23.00;1.00
39401;DHT22;54391;50.000;7.360;2023-07-20T16:48:31;22.90;1.00
39401;DHT22;54391;50.000;7.360;2023-07-20T16:51:01;22.90;1.00
39401;DHT22;54391;50.000;7.360;2023-07-20T16:53:29;22.80;1.00
39401;DHT22;54391;50.000;7.360;2023-07-20T16:55:56;22.90;1.00
39401;DHT22;54391;50.000;7.360;2023-07-20T16:58:25;22.80;1.00
39401;DHT22;54391;50.000;7.360;2023-07-20T17:00:59;22.70;1.00
39401;DHT22;54391;50.000;7.360;2023-07-20T17:03:28;22.80;1.00
39401;DHT22;54391;50.000;7.360;2023-07-20T17:10:50;22.70;1.00
39401;DHT22;54391;50.000;7.360;2023-07-20T17:15:46;22.60;1.00
39401;DHT22;54391;50.000;7.360;2023-07-20T17:33:00;22.00;1.00
39401;DHT22;54391;50.000;7.360;2023-07-20T17:35:27;21.90;1.00
39401;DHT22;54391;50.000;7.360;2023-07-20T18:07:32;21.30;1.00
39401;DHT22;54391;50.000;7.360;2023-07-20T18:10:00;21.30;1.00
39401;DHT22;54391;50.000;7.360;2023-07-20T18:12:31;21.10;1.00
39401;DHT22;54391;50.000;7.360;2023-07-20T18:14:58;21.00;1.00
39401;DHT22;54391;50.000;7.360;2023-07-20T18:24:48;21.00;1.00
